Time;durP1;ratioP1;P1;durP2;ratioP2;P2;SDS_P1;SDS_P2;PMS_P1;PMS_P2;Temp;Humidity;BMP_temperature;BMP_pressure;BME280_temperature;BME280_humidity;BME280_pressure;Samples;Min_cycle;Max_cycle;Signal;HPM_P1;HPM_P2
2022/06/01 00:00:30;;;;;;;4.50;3.30;;;;;;100375.60;;;;107468;1279;28796;-28
2022/06/01 00:03:04;;;;;;;5.70;3.40;;;;;;100373.95;;;;107544;1278;29689;-28
2022/06/01 00:05:30;;;;;;;5.10;3.20;;;;;;100381.75;;;;107524;1279;27293;-28
2022/06/01 00:07:57;;;;;;;6.90;3.40;;;;;;100396.30;;;;107531;1278;27537;-28
2022/06/01 00:10:24;;;;;;;4.50;3.20;;;;;;100397.59;;;;107557;1278;28642;-28
2022/06/01 00:12:50;;;;;;;4.90;3.30;;;;;;100395.00;;;;107509;1279;26877;-28
2022/06/01 00:15:19;;;;;;;5.20;3.20;;;;;;100393.66;;;;107545;1279;28268;-28
2022/06/01 00:17:46;;;;;;;4.70;3.50;;;;;;100393.16;;;;107560;1278;28638;-28
2022/06/01 00:20:14;;;;;;;4.80;3.40;;;;;;100400.62;;;;107546;1277;27873;-28
2022/06/01 00:22:43;;;;;;;5.10;3.40;;;;;;100399.85;;;;107564;1278;26801;-28
2022/06/01 00:25:14;;;;;;;6.00;3.80;;;;;;100393.92;;;;107581;1279;28785;-28
2022/06/01 00:27:41;;;;;;;5.10;3.70;;;;;;100379.97;;;;107549;1278;29483;-28
2022/06/01 00:30:12;;;;;;;4.80;3.50;;;;;;100368.08;;;;107526;1277;28736;-28
2022/06/01 00:32:41;;;;;;;4.60;3.40;;;;;;100357.55;;;;107548;1279;29591;-29
2022/06/01 00:35:10;;;;;;;5.30;3.60;;;;;;100354.59;;;;107485;1278;28668;-29
2022/06/01 00:37:37;;;;;;;5.10;3.60;;;;;;100361.16;;;;107575;1278;27420;-29
2022/06/01 00:40:07;;;;;;;4.20;3.40;;;;;;100356.54;;;;107550;1278;27579;-29
2022/06/01 00:42:36;;;;;;;6.10;3.60;;;;;;100356.15;;;;107475;1279;26327;-29
2022/06/01 00:45:07;;;;;;;5.00;3.70;;;;;;100361.94;;;;107564;1278;27532;-29
2022/06/01 00:47:34;;;;;;;5.30;3.70;;;;;;100362.69;;;;107554;1278;28712;-29
2022/06/01 00:50:31;;;;;;;4.80;3.70;;;;;;100359.27;;;;107546;1279;26640;-29
2022/06/01 00:53:03;;;;;;;5.50;4.00;;;;;;100349.55;;;;107501;1279;28892;-29
2022/06/01 00:55:39;;;;;;;4.90;3.80;;;;;;100345.13;;;;107482;1279;26724;-29
2022/06/01 00:58:20;;;;;;;4.50;3.30;;;;;;100391.23;;;;107524;1277;28669;-29
2022/06/01 01:00:50;;;;;;;5.60;3.80;;;;;;100395.83;;;;107477;1279;26241;-29
2022/06/01 01:03:19;;;;;;;5.20;3.50;;;;;;100382.27;;;;107578;1278;27303;-29
2022/06/01 01:05:52;;;;;;;5.20;3.40;;;;;;100374.58;;;;107510;1279;28260;-29
2022/06/01 01:08:19;;;;;;;5.30;3.70;;;;;;100362.95;;;;107524;1278;29412;-29
2022/06/01 01:10:46;;;;;;;5.40;4.20;;;;;;100349.08;;;;107558;1278;29573;-29
2022/06/01 01:13:14;;;;;;;7.50;4.10;;;;;;100343.30;;;;107529;1277;29638;-29
2022/06/01 01:15:58;;;;;;;5.30;4.00;;;;;;100321.54;;;;107486;1279;27624;-29
2022/06/01 01:18:33;;;;;;;5.40;3.90;;;;;;100323.21;;;;107426;1281;28829;-29
2022/06/01 01:21:22;;;;;;;4.90;4.20;;;;;;100341.91;;;;107552;1278;28700;-29
2022/06/01 01:24:16;;;;;;;5.20;3.90;;;;;;100351.50;;;;107547;1279;26103;-29
2022/06/01 01:26:48;;;;;;;5.20;3.70;;;;;;100330.14;;;;107405;1277;28686;-29
2022/06/01 01:29:17;;;;;;;4.60;3.70;;;;;;100303.15;;;;107502;1279;27663;-29
2022/06/01 01:31:43;;;;;;;4.90;4.00;;;;;;100292.77;;;;107554;1278;28066;-29
2022/06/01 01:34:10;;;;;;;5.40;4.30;;;;;;100278.71;;;;107535;1279;27418;-29
2022/06/01 01:36:44;;;;;;;4.60;3.90;;;;;;100267.96;;;;107537;1279;28756;-29
2022/06/01 01:39:16;;;;;;;5.20;3.90;;;;;;100269.30;;;;107549;1279;28731;-29
2022/06/01 01:41:49;;;;;;;5.30;4.10;;;;;;100271.55;;;;107561;1279;26595;-29
2022/06/01 01:44:27;;;;;;;6.10;4.10;;;;;;100283.47;;;;107555;1278;28794;-29
2022/06/01 01:46:56;;;;;;;4.70;3.80;;;;;;100282.84;;;;107535;1279;26210;-29
2022/06/01 01:49:26;;;;;;;4.50;3.70;;;;;;100279.95;;;;107573;1279;28661;-30
2022/06/01 01:51:58;;;;;;;5.20;3.90;;;;;;100277.70;;;;107538;1278;28509;-29
2022/06/01 01:55:12;;;;;;;5.10;3.90;;;;;;100285.11;;;;107543;1279;28830;-29
2022/06/01 01:58:20;;;;;;;4.90;4.00;;;;;;100288.91;;;;107544;1278;28247;-29
2022/06/01 02:00:52;;;;;;;5.20;3.90;;;;;;100289.80;;;;107486;1279;28639;-29
2022/06/01 02:03:39;;;;;;;5.60;4.50;;;;;;100284.77;;;;107557;1278;28621;-29
2022/06/01 02:06:24;;;;;;;5.80;4.30;;;;;;100279.48;;;;107537;1277;28721;-29
2022/06/01 02:09:00;;;;;;;5.10;4.10;;;;;;100270.80;;;;107562;1278;26377;-29
2022/06/01 02:14:45;;;;;;;;;;;;;;100262.05;;;;107547;1278;28742;-29
2022/06/01 02:17:24;;;;;;;5.30;4.10;;;;;;100256.15;;;;107543;1278;28725;-29
2022/06/01 02:20:08;;;;;;;4.80;4.00;;;;;;100257.39;;;;107540;1279;27638;-29
2022/06/01 02:22:38;;;;;;;5.60;4.40;;;;;;100250.39;;;;107574;1279;26618;-29
2022/06/01 02:25:07;;;;;;;5.00;3.90;;;;;;100247.21;;;;107529;1279;27472;-29
2022/06/01 02:27:35;;;;;;;5.50;4.10;;;;;;100249.17;;;;107575;1278;26257;-29
2022/06/01 02:30:18;;;;;;;5.10;4.30;;;;;;100243.90;;;;107485;1279;27444;-29
2022/06/01 02:32:46;;;;;;;5.10;4.00;;;;;;100238.73;;;;107545;1277;28691;-29
2022/06/01 02:35:17;;;;;;;5.90;4.00;;;;;;100236.24;;;;107566;1279;27738;-29
2022/06/01 02:37:46;;;;;;;5.80;4.50;;;;;;100233.10;;;;107491;1279;27156;-29
2022/06/01 02:40:18;;;;;;;5.30;4.30;;;;;;100226.04;;;;107487;1279;28684;-29
2022/06/01 02:42:49;;;;;;;6.00;4.40;;;;;;100218.98;;;;107548;1279;28671;-29
2022/06/01 02:45:20;;;;;;;5.80;4.30;;;;;;100213.83;;;;107549;1278;27405;-29
2022/06/01 02:47:52;;;;;;;5.60;4.40;;;;;;100210.34;;;;107536;1277;27299;-29
2022/06/01 02:50:24;;;;;;;5.70;4.10;;;;;;100203.81;;;;107536;1277;28692;-29
2022/06/01 02:52:51;;;;;;;5.20;4.10;;;;;;100202.51;;;;107508;1278;27429;-29
2022/06/01 02:55:21;;;;;;;5.30;4.00;;;;;;100199.74;;;;107498;1279;27291;-30
2022/06/01 02:57:50;;;;;;;6.20;4.30;;;;;;100200.45;;;;107557;1279;27290;-31
2022/06/01 03:00:35;;;;;;;4.80;4.00;;;;;;100196.63;;;;107582;1279;27456;-31
2022/06/01 03:03:04;;;;;;;5.40;4.20;;;;;;100197.05;;;;107553;1279;27443;-31
2022/06/01 03:05:35;;;;;;;5.20;3.90;;;;;;100194.36;;;;107506;1279;27120;-31
2022/06/01 03:08:05;;;;;;;5.50;3.90;;;;;;100194.24;;;;107532;1278;27424;-31
2022/06/01 03:10:34;;;;;;;4.90;4.00;;;;;;100196.13;;;;107470;1279;28690;-31
2022/06/01 03:13:01;;;;;;;5.30;4.00;;;;;;100194.30;;;;107550;1279;27554;-31
2022/06/01 03:15:28;;;;;;;5.40;4.10;;;;;;100190.60;;;;107520;1279;26894;-31
2022/06/01 03:17:55;;;;;;;6.00;4.30;;;;;;100190.45;;;;107527;1278;28786;-34
2022/06/01 03:20:27;;;;;;;5.90;4.50;;;;;;100188.61;;;;107524;1277;27247;-31
2022/06/01 03:22:55;;;;;;;5.30;4.10;;;;;;100188.69;;;;107517;1278;27643;-31
2022/06/01 03:25:23;;;;;;;5.30;4.00;;;;;;100186.11;;;;107536;1278;28506;-30
2022/06/01 03:27:52;;;;;;;6.00;4.00;;;;;;100183.39;;;;107549;1278;28368;-31
2022/06/01 03:30:20;;;;;;;4.70;3.60;;;;;;100180.95;;;;107540;1278;28763;-31
2022/06/01 03:32:48;;;;;;;5.20;3.80;;;;;;100182.64;;;;107489;1279;28706;-31
2022/06/01 03:35:19;;;;;;;5.20;3.90;;;;;;100182.69;;;;107542;1277;27568;-34
2022/06/01 03:37:47;;;;;;;5.60;4.60;;;;;;100181.39;;;;107544;1279;28852;-29
2022/06/01 03:40:17;;;;;;;5.70;4.00;;;;;;100180.69;;;;107560;1278;29830;-30
2022/06/01 03:42:44;;;;;;;5.90;4.10;;;;;;100179.77;;;;107528;1279;28719;-30
2022/06/01 03:47:57;;;;;;;5.40;4.10;;;;;;100204.11;;;;107510;1279;28546;-30
2022/06/01 03:50:26;;;;;;;5.40;3.60;;;;;;100208.41;;;;107513;1279;28067;-31
2022/06/01 03:52:53;;;;;;;5.00;3.70;;;;;;100209.34;;;;107556;1277;29621;-31
2022/06/01 03:55:21;;;;;;;5.00;4.10;;;;;;100212.38;;;;107549;1279;28684;-31
2022/06/01 03:57:48;;;;;;;5.50;4.00;;;;;;100209.42;;;;107541;1279;28700;-31
2022/06/01 04:00:23;;;;;;;5.00;3.80;;;;;;100206.00;;;;107520;1279;29608;-31
2022/06/01 04:03:09;;;;;;;5.20;3.90;;;;;;100207.56;;;;107510;1278;28773;-31
2022/06/01 04:05:55;;;;;;;5.80;4.00;;;;;;100208.18;;;;107480;1279;28870;-31
2022/06/01 04:08:40;;;;;;;6.10;4.10;;;;;;100202.88;;;;107520;1279;28723;-31
2022/06/01 04:11:26;;;;;;;5.70;3.90;;;;;;100198.48;;;;107512;1278;28587;-31
2022/06/01 04:13:52;;;;;;;5.10;4.10;;;;;;100198.02;;;;107545;1279;27281;-30
2022/06/01 04:16:19;;;;;;;5.50;4.50;;;;;;100198.60;;;;107548;1278;28732;-30
2022/06/01 04:18:47;;;;;;;4.60;3.50;;;;;;100201.64;;;;107456;1279;27201;-30
2022/06/01 04:21:17;;;;;;;5.30;4.00;;;;;;100203.66;;;;107527;1280;28731;-33
2022/06/01 04:23:44;;;;;;;5.10;3.70;;;;;;100201.16;;;;107524;1279;28055;-31
2022/06/01 04:26:10;;;;;;;5.30;3.90;;;;;;100201.29;;;;107521;1278;26248;-32
2022/06/01 04:28:37;;;;;;;5.30;3.80;;;;;;100203.91;;;;107542;1278;27681;-32
2022/06/01 04:31:04;;;;;;;4.80;3.80;;;;;;100207.31;;;;107528;1277;29937;-31
2022/06/01 04:33:31;;;;;;;5.20;4.00;;;;;;100204.58;;;;107525;1278;28739;-32
2022/06/01 04:35:57;;;;;;;5.60;3.70;;;;;;100203.52;;;;107525;1278;28724;-31
2022/06/01 04:38:42;;;;;;;5.40;3.90;;;;;;100204.42;;;;107519;1279;28781;-31
2022/06/01 04:41:08;;;;;;;5.40;3.80;;;;;;100208.38;;;;107520;1280;28769;-31
2022/06/01 04:43:35;;;;;;;6.10;4.00;;;;;;100210.04;;;;107530;1279;27601;-31
2022/06/01 04:46:02;;;;;;;5.20;3.70;;;;;;100209.66;;;;107470;1279;29358;-31
2022/06/01 04:48:28;;;;;;;5.60;3.90;;;;;;100209.69;;;;107522;1278;28828;-31
2022/06/01 04:50:56;;;;;;;4.90;3.70;;;;;;100210.89;;;;107516;1278;27425;-31
2022/06/01 04:53:23;;;;;;;5.00;3.80;;;;;;100207.54;;;;107498;1279;28226;-31
2022/06/01 04:55:50;;;;;;;5.20;3.90;;;;;;100202.12;;;;107555;1279;28844;-32
2022/06/01 04:58:17;;;;;;;5.90;3.90;;;;;;100208.35;;;;107520;1278;27411;-29
2022/06/01 05:00:44;;;;;;;5.00;3.60;;;;;;100206.19;;;;107529;1278;28666;-29
2022/06/01 05:03:12;;;;;;;5.50;4.00;;;;;;100202.04;;;;107547;1278;27710;-30
2022/06/01 05:05:40;;;;;;;5.00;4.00;;;;;;100199.20;;;;107476;1279;26255;-30
2022/06/01 05:08:08;;;;;;;4.70;3.80;;;;;;100195.20;;;;107538;1278;28722;-30
2022/06/01 05:10:35;;;;;;;5.00;4.00;;;;;;100193.40;;;;107529;1278;26160;-30
2022/06/01 05:13:03;;;;;;;5.10;3.80;;;;;;100199.75;;;;107563;1278;28553;-30
2022/06/01 05:15:29;;;;;;;5.20;3.90;;;;;;100216.67;;;;107524;1278;28755;-30
2022/06/01 05:17:56;;;;;;;5.10;3.70;;;;;;100237.54;;;;107509;1278;28685;-30
2022/06/01 05:20:23;;;;;;;5.80;3.90;;;;;;100237.58;;;;107520;1278;28727;-30
2022/06/01 05:22:49;;;;;;;5.30;4.00;;;;;;100244.52;;;;107537;1279;27560;-30
2022/06/01 05:25:16;;;;;;;5.30;3.90;;;;;;100236.62;;;;107524;1278;29555;-31
2022/06/01 05:27:43;;;;;;;5.40;3.60;;;;;;100239.73;;;;107280;1279;317419;-30
2022/06/01 05:30:10;;;;;;;4.60;3.60;;;;;;100234.84;;;;107506;1278;26481;-30
2022/06/01 05:32:36;;;;;;;4.70;3.30;;;;;;100211.82;;;;107515;1278;29542;-31
2022/06/01 05:35:03;;;;;;;5.00;3.80;;;;;;100204.16;;;;107520;1278;28649;-30
2022/06/01 05:37:30;;;;;;;4.90;3.70;;;;;;100214.70;;;;107535;1277;27555;-31
2022/06/01 05:39:57;;;;;;;4.80;3.50;;;;;;100216.66;;;;107525;1279;27600;-31
2022/06/01 05:42:23;;;;;;;5.20;3.60;;;;;;100220.67;;;;107528;1277;30177;-30
2022/06/01 05:44:52;;;;;;;5.40;3.90;;;;;;100217.64;;;;107523;1280;29604;-30
2022/06/01 05:47:19;;;;;;;5.10;3.60;;;;;;100203.88;;;;107520;1280;29738;-30
2022/06/01 05:49:49;;;;;;;4.90;3.90;;;;;;100184.85;;;;107518;1278;29292;-30
2022/06/01 05:52:19;;;;;;;5.20;3.70;;;;;;100169.77;;;;107526;1278;28770;-31
2022/06/01 05:54:46;;;;;;;5.60;3.50;;;;;;100142.31;;;;107538;1278;27452;-31
2022/06/01 05:57:14;;;;;;;4.80;3.80;;;;;;100138.15;;;;107499;1280;28749;-31
2022/06/01 05:59:41;;;;;;;4.90;3.50;;;;;;100136.02;;;;107539;1278;29686;-31
2022/06/01 06:02:08;;;;;;;4.80;3.70;;;;;;100122.63;;;;107509;1278;28857;-31
2022/06/01 06:04:35;;;;;;;5.90;3.70;;;;;;100114.07;;;;107547;1280;28765;-31
2022/06/01 06:07:02;;;;;;;4.40;3.10;;;;;;100114.62;;;;107518;1279;29745;-30
2022/06/01 06:09:29;;;;;;;6.10;3.30;;;;;;100139.27;;;;107520;1278;27802;-31
2022/06/01 06:11:55;;;;;;;5.60;3.70;;;;;;100183.34;;;;107533;1278;28748;-31
2022/06/01 06:14:22;;;;;;;6.10;3.70;;;;;;100196.37;;;;107539;1278;28683;-31
2022/06/01 06:16:49;;;;;;;4.80;3.60;;;;;;100211.66;;;;107529;1277;27389;-31
2022/06/01 06:19:19;;;;;;;5.40;3.60;;;;;;100201.20;;;;107525;1278;26606;-31
2022/06/01 06:21:46;;;;;;;5.30;3.80;;;;;;100175.01;;;;107558;1277;29794;-30
2022/06/01 06:24:18;;;;;;;4.70;3.30;;;;;;100165.73;;;;107529;1278;29545;-31
2022/06/01 06:26:45;;;;;;;4.70;3.40;;;;;;100165.50;;;;107525;1278;27375;-31
2022/06/01 06:29:15;;;;;;;5.50;3.90;;;;;;100178.16;;;;107543;1280;27531;-30
2022/06/01 06:31:42;;;;;;;5.80;3.70;;;;;;100198.54;;;;107530;1278;26889;-31
2022/06/01 06:34:09;;;;;;;4.90;3.40;;;;;;100206.89;;;;107536;1278;27544;-40
2022/06/01 06:36:36;;;;;;;5.20;3.50;;;;;;100223.19;;;;107429;1278;27420;-31
2022/06/01 06:39:03;;;;;;;4.90;3.30;;;;;;100230.39;;;;107522;1278;28651;-30
2022/06/01 06:41:30;;;;;;;4.80;3.70;;;;;;100242.39;;;;107541;1278;27445;-31
2022/06/01 06:43:57;;;;;;;4.70;3.30;;;;;;100241.33;;;;107547;1277;26755;-31
2022/06/01 06:46:24;;;;;;;4.70;3.20;;;;;;100240.70;;;;107505;1278;28421;-32
2022/06/01 06:48:51;;;;;;;5.20;3.40;;;;;;100236.05;;;;107521;1278;26408;-32
2022/06/01 06:51:20;;;;;;;5.10;3.20;;;;;;100225.12;;;;107564;1278;28553;-31
2022/06/01 06:53:48;;;;;;;5.30;3.60;;;;;;100220.21;;;;107575;1278;28675;-31
2022/06/01 06:56:17;;;;;;;5.00;3.30;;;;;;100224.39;;;;107562;1278;28713;-31
2022/06/01 06:58:44;;;;;;;5.00;3.60;;;;;;100223.42;;;;107573;1277;28700;-32
2022/06/01 07:01:11;;;;;;;5.70;3.60;;;;;;100229.82;;;;107544;1277;27441;-31
2022/06/01 07:03:38;;;;;;;4.80;3.10;;;;;;100222.23;;;;107546;1277;26569;-32
2022/06/01 07:06:17;;;;;;;4.70;3.30;;;;;;100227.48;;;;107549;1277;29682;-31
2022/06/01 07:08:48;;;;;;;4.70;3.30;;;;;;100222.06;;;;107534;1277;28769;-31
2022/06/01 07:11:17;;;;;;;4.70;3.40;;;;;;100207.11;;;;107591;1278;27525;-30
2022/06/01 07:13:46;;;;;;;5.20;3.20;;;;;;100215.84;;;;107563;1277;29564;-30
2022/06/01 07:16:17;;;;;;;4.60;3.00;;;;;;100229.45;;;;107584;1277;28649;-32
2022/06/01 07:18:47;;;;;;;4.40;3.20;;;;;;100234.02;;;;107531;1277;28672;-31
2022/06/01 07:21:16;;;;;;;4.80;3.50;;;;;;100232.10;;;;107551;1278;28778;-31
2022/06/01 07:23:45;;;;;;;5.00;3.30;;;;;;100230.71;;;;107583;1278;29186;-30
2022/06/01 07:26:15;;;;;;;4.90;3.10;;;;;;100224.85;;;;107575;1277;28715;-31
2022/06/01 07:28:41;;;;;;;5.30;3.30;;;;;;100214.16;;;;107510;1278;28662;-31
2022/06/01 07:31:08;;;;;;;5.00;3.30;;;;;;100209.98;;;;107519;1278;28636;-30
2022/06/01 07:33:35;;;;;;;4.50;3.30;;;;;;100212.55;;;;107524;1277;27455;-30
2022/06/01 07:36:06;;;;;;;4.40;3.30;;;;;;100214.04;;;;107540;1277;28756;-30
2022/06/01 07:44:15;;;;;;;4.60;3.50;;;;;;100210.75;;;;107511;1277;27572;-30
2022/06/01 07:46:42;;;;;;;5.70;3.40;;;;;;100218.04;;;;107531;1278;27534;-30
2022/06/01 07:49:09;;;;;;;5.80;3.80;;;;;;100215.88;;;;107517;1278;29372;-31
2022/06/01 07:51:37;;;;;;;5.10;3.40;;;;;;100209.84;;;;107399;1281;28620;-31
2022/06/01 07:54:05;;;;;;;5.60;3.70;;;;;;100197.76;;;;107540;1277;27685;-30
2022/06/01 07:56:32;;;;;;;6.30;3.50;;;;;;100193.61;;;;107578;1278;27631;-30
2022/06/01 07:58:59;;;;;;;6.80;4.30;;;;;;100193.15;;;;107453;1278;27509;-33
2022/06/01 08:01:26;;;;;;;6.70;4.50;;;;;;100199.70;;;;107505;1277;29367;-31
2022/06/01 08:03:58;;;;;;;5.40;3.60;;;;;;100212.30;;;;107467;1281;29031;-31
2022/06/01 08:06:26;;;;;;;7.10;3.90;;;;;;100218.48;;;;107510;1278;26915;-31
2022/06/01 08:08:54;;;;;;;6.70;3.90;;;;;;100221.04;;;;107523;1278;29497;-31
2022/06/01 08:13:06;;;;;;;6.40;4.00;;;;;;100223.67;;;;107545;1278;28755;-31
2022/06/01 08:14:10;;;;;;;8.50;4.30;;;;;;100225.08;;;;107525;1278;28540;-31
2022/06/01 08:16:39;;;;;;;7.40;4.60;;;;;;100222.55;;;;107533;1277;28673;-31
2022/06/01 08:19:07;;;;;;;7.70;4.40;;;;;;100225.20;;;;107425;1277;27669;-32
2022/06/01 08:21:35;;;;;;;6.50;4.10;;;;;;100225.52;;;;107498;1278;29696;-31
2022/06/01 08:24:04;;;;;;;8.00;4.30;;;;;;100220.70;;;;107583;1277;27653;-31
2022/06/01 08:26:31;;;;;;;6.60;4.00;;;;;;100220.09;;;;107494;1277;27562;-32
2022/06/01 08:28:58;;;;;;;6.80;4.70;;;;;;100217.38;;;;107556;1277;27605;-31
2022/06/01 08:31:27;;;;;;;8.40;4.60;;;;;;100215.63;;;;107513;1277;27560;-32
2022/06/01 08:33:54;;;;;;;8.20;4.30;;;;;;100207.34;;;;107498;1278;26439;-31
2022/06/01 08:36:21;;;;;;;7.20;4.30;;;;;;100207.62;;;;107507;1277;28645;-31
2022/06/01 08:38:47;;;;;;;7.20;4.30;;;;;;100207.56;;;;107504;1278;28363;-30
2022/06/01 08:41:15;;;;;;;7.60;4.70;;;;;;100206.73;;;;107476;1277;28593;-32
2022/06/01 08:43:54;;;;;;;7.60;4.50;;;;;;100208.46;;;;107463;1277;27703;-31
2022/06/01 08:46:23;;;;;;;7.30;4.70;;;;;;100207.71;;;;107478;1278;28566;-30
2022/06/01 08:48:58;;;;;;;6.90;4.70;;;;;;100209.21;;;;107523;1277;27975;-31
2022/06/01 08:51:28;;;;;;;6.90;4.20;;;;;;100204.14;;;;107530;1277;29933;-30
2022/06/01 08:53:57;;;;;;;8.00;4.80;;;;;;100190.34;;;;107510;1277;28754;-31
2022/06/01 08:56:41;;;;;;;6.90;4.60;;;;;;100178.93;;;;107603;1278;27414;-31
2022/06/01 08:59:26;;;;;;;7.60;4.60;;;;;;100172.19;;;;107504;1277;26099;-31
2022/06/01 09:02:17;;;;;;;5.90;4.40;;;;;;100166.83;;;;107499;1278;29777;-31
2022/06/01 09:04:57;;;;;;;7.70;4.80;;;;;;100164.66;;;;107509;1277;29788;-31
2022/06/01 09:07:33;;;;;;;7.50;4.90;;;;;;100168.72;;;;107503;1277;28543;-32
2022/06/01 09:10:40;;;;;;;8.80;4.60;;;;;;100169.44;;;;107501;1278;28738;-31
2022/06/01 09:13:28;;;;;;;6.70;4.80;;;;;;100180.92;;;;107492;1278;28604;-30
2022/06/01 09:16:03;;;;;;;6.90;4.40;;;;;;100191.02;;;;107510;1278;28515;-31
2022/06/01 09:18:41;;;;;;;8.00;4.80;;;;;;100194.89;;;;107476;1277;28711;-32
2022/06/01 09:24:10;;;;;;;8.40;4.70;;;;;;100196.89;;;;107494;1277;26585;-30
2022/06/01 09:26:58;;;;;;;6.80;4.40;;;;;;100194.53;;;;107518;1277;28648;-31
2022/06/01 09:29:32;;;;;;;5.90;4.40;;;;;;100190.36;;;;107497;1278;26459;-32
2022/06/01 09:32:08;;;;;;;6.40;4.30;;;;;;100192.60;;;;107526;1277;29799;-30
2022/06/01 09:35:11;;;;;;;7.00;4.60;;;;;;100190.77;;;;107486;1277;29198;-29
2022/06/01 09:37:45;;;;;;;5.30;4.20;;;;;;100204.45;;;;107509;1277;28657;-30
2022/06/01 09:40:29;;;;;;;6.20;4.20;;;;;;100205.84;;;;107541;1277;27580;-29
2022/06/01 09:43:00;;;;;;;;;;;;;;100198.70;;;;107514;1277;28633;-31
2022/06/01 09:45:38;;;;;;;5.00;3.60;;;;;;100204.41;;;;107530;1278;28714;-32
2022/06/01 09:48:35;;;;;;;6.70;4.00;;;;;;100207.56;;;;107520;1278;27669;-31
2022/06/01 09:51:07;;;;;;;6.90;4.30;;;;;;100208.90;;;;107477;1278;28644;-31
2022/06/01 09:53:42;;;;;;;6.50;4.60;;;;;;100217.55;;;;107495;1278;29600;-31
2022/06/01 09:56:10;;;;;;;6.80;4.50;;;;;;100219.26;;;;107512;1278;27388;-30
2022/06/01 10:07:30;;;;;;;7.60;4.30;;;;;;100224.60;;;;107502;1277;29625;-30
2022/06/01 10:10:02;;;;;;;7.20;4.20;;;;;;100228.80;;;;107489;1277;28643;-30
2022/06/01 10:12:46;;;;;;;5.50;4.10;;;;;;100220.88;;;;107514;1277;27545;-30
2022/06/01 10:15:46;;;;;;;8.20;4.30;;;;;;100225.14;;;;107524;1277;28749;-30
2022/06/01 10:18:17;;;;;;;5.60;3.90;;;;;;100236.06;;;;107519;1277;27370;-30
2022/06/01 10:20:52;;;;;;;6.10;4.00;;;;;;100234.43;;;;107539;1277;27500;-30
2022/06/01 10:23:26;;;;;;;6.90;4.20;;;;;;100235.01;;;;107537;1277;28727;-30
2022/06/01 10:26:02;;;;;;;7.60;4.40;;;;;;100237.63;;;;107496;1277;28784;-29
2022/06/01 10:28:46;;;;;;;6.50;4.30;;;;;;100234.55;;;;107505;1277;28723;-30
2022/06/01 10:31:39;;;;;;;5.60;4.00;;;;;;100229.13;;;;107469;1278;27550;-30
2022/06/01 10:34:24;;;;;;;5.20;3.90;;;;;;100225.35;;;;107511;1277;28671;-30
2022/06/01 10:37:12;;;;;;;6.60;4.20;;;;;;100226.26;;;;107534;1277;27285;-30
2022/06/01 10:40:13;;;;;;;5.60;4.10;;;;;;100227.16;;;;107489;1278;29893;-30
2022/06/01 10:43:16;;;;;;;5.80;3.60;;;;;;100227.77;;;;107382;1277;28804;-32
2022/06/01 10:45:50;;;;;;;6.90;4.20;;;;;;100223.85;;;;107501;1277;28661;-32
2022/06/01 10:48:23;;;;;;;5.70;4.20;;;;;;100221.86;;;;107530;1277;29498;-32
2022/06/01 10:51:16;;;;;;;6.10;3.60;;;;;;100220.70;;;;107509;1277;26546;-32
2022/06/01 10:54:13;;;;;;;5.40;3.60;;;;;;100216.06;;;;107512;1277;29917;-32
2022/06/01 10:56:41;;;;;;;5.60;3.50;;;;;;100215.73;;;;107489;1277;27559;-30
2022/06/01 10:59:12;;;;;;;6.50;3.80;;;;;;100212.31;;;;107484;1277;26494;-31
2022/06/01 11:02:09;;;;;;;5.60;3.70;;;;;;100217.33;;;;107491;1277;27536;-31
2022/06/01 11:04:55;;;;;;;5.10;3.80;;;;;;100220.19;;;;107497;1277;27577;-30
2022/06/01 11:08:10;;;;;;;5.70;4.20;;;;;;100217.74;;;;107481;1277;29645;-31
2022/06/01 11:10:55;;;;;;;5.60;3.80;;;;;;100214.69;;;;107499;1278;28526;-30
2022/06/01 11:14:09;;;;;;;6.50;3.60;;;;;;100219.55;;;;107503;1277;27692;-31
2022/06/01 11:17:08;;;;;;;6.60;3.80;;;;;;100216.73;;;;107480;1278;28701;-31
2022/06/01 11:20:00;;;;;;;5.30;3.30;;;;;;100211.81;;;;107500;1277;28654;-31
2022/06/01 11:23:16;;;;;;;6.30;3.40;;;;;;100207.90;;;;107483;1277;28816;-31
2022/06/01 11:26:07;;;;;;;5.20;3.40;;;;;;100198.46;;;;107429;1278;28825;-32
2022/06/01 11:29:08;;;;;;;5.50;3.50;;;;;;100193.19;;;;107488;1277;27766;-31
2022/06/01 11:31:36;;;;;;;6.70;3.50;;;;;;100186.42;;;;107491;1277;28801;-31
2022/06/01 11:34:13;;;;;;;5.40;3.30;;;;;;100185.42;;;;107486;1278;28779;-31
2022/06/01 11:37:08;;;;;;;5.00;3.50;;;;;;100188.69;;;;107493;1277;28578;-31
2022/06/01 11:39:51;;;;;;;5.30;3.10;;;;;;100185.13;;;;107498;1277;28258;-32
2022/06/01 11:42:31;;;;;;;4.80;3.20;;;;;;100184.94;;;;107486;1278;28679;-30
2022/06/01 11:45:08;;;;;;;5.10;3.10;;;;;;100190.14;;;;107487;1277;28723;-30
2022/06/01 11:47:46;;;;;;;4.90;3.60;;;;;;100184.34;;;;107485;1277;27304;-31
2022/06/01 11:50:25;;;;;;;4.60;3.00;;;;;;100185.55;;;;107486;1279;28841;-31
2022/06/01 11:53:05;;;;;;;5.30;3.50;;;;;;100193.04;;;;107506;1277;28549;-31
2022/06/01 11:55:38;;;;;;;4.60;2.80;;;;;;100192.25;;;;107511;1277;28845;-30
2022/06/01 11:58:21;;;;;;;5.10;3.10;;;;;;100189.77;;;;107485;1277;28566;-30
2022/06/01 12:00:48;;;;;;;4.70;3.40;;;;;;100187.16;;;;107505;1277;28668;-30
2022/06/01 12:03:20;;;;;;;5.70;3.20;;;;;;100189.96;;;;107499;1278;28449;-32
2022/06/01 12:06:11;;;;;;;4.90;2.90;;;;;;100188.92;;;;107496;1277;28716;-30
2022/06/01 12:08:53;;;;;;;4.60;2.90;;;;;;100187.63;;;;107511;1278;29671;-30
2022/06/01 12:11:38;;;;;;;4.40;3.20;;;;;;100188.36;;;;107512;1279;28710;-30
2022/06/01 12:14:39;;;;;;;4.60;2.80;;;;;;100172.72;;;;107482;1277;28672;-30
2022/06/01 12:17:17;;;;;;;4.40;3.00;;;;;;100174.32;;;;107253;1277;28700;-30
2022/06/01 12:19:47;;;;;;;4.70;3.10;;;;;;100172.98;;;;107491;1277;27317;-30
2022/06/01 12:28:56;;;;;;;4.30;2.90;;;;;;100170.23;;;;107496;1277;27475;-31
2022/06/01 12:31:32;;;;;;;4.30;3.30;;;;;;100168.23;;;;107518;1277;27650;-31
2022/06/01 12:34:21;;;;;;;4.80;3.10;;;;;;100169.41;;;;107490;1277;28546;-30
2022/06/01 12:36:50;;;;;;;5.20;3.00;;;;;;100165.30;;;;107530;1278;27571;-30
2022/06/01 12:39:41;;;;;;;5.10;3.00;;;;;;100170.63;;;;107543;1277;26594;-31
2022/06/01 12:42:27;;;;;;;4.70;3.30;;;;;;100166.30;;;;107485;1277;29803;-31
2022/06/01 12:44:57;;;;;;;4.50;2.80;;;;;;100170.67;;;;107487;1278;28803;-30
2022/06/01 12:47:30;;;;;;;4.40;2.90;;;;;;100168.83;;;;107542;1278;28758;-31
2022/06/01 12:50:14;;;;;;;5.00;3.00;;;;;;100169.59;;;;107487;1278;27401;-31
2022/06/01 12:52:41;;;;;;;6.00;3.20;;;;;;100170.15;;;;107542;1277;28708;-30
2022/06/01 12:55:30;;;;;;;4.50;2.70;;;;;;100171.16;;;;107528;1277;27641;-31
2022/06/01 12:57:58;;;;;;;4.50;2.70;;;;;;100166.41;;;;107523;1277;29700;-30
2022/06/01 13:00:32;;;;;;;4.00;2.50;;;;;;100171.11;;;;107529;1278;26580;-28
2022/06/01 13:02:59;;;;;;;4.20;2.90;;;;;;100163.92;;;;107611;1274;27561;-30
2022/06/01 13:05:41;;;;;;;5.00;2.80;;;;;;100168.08;;;;107574;1277;28733;-30
2022/06/01 13:08:22;;;;;;;5.10;2.80;;;;;;100169.25;;;;107540;1280;27514;-30
2022/06/01 13:10:49;;;;;;;4.30;2.90;;;;;;100163.05;;;;107501;1278;28861;-31
2022/06/01 13:13:25;;;;;;;5.20;2.80;;;;;;100160.64;;;;107499;1277;28820;-31
2022/06/01 13:15:58;;;;;;;4.40;2.90;;;;;;100166.82;;;;107490;1277;28702;-30
2022/06/01 13:18:38;;;;;;;4.50;2.90;;;;;;100167.95;;;;107498;1278;28702;-30
2022/06/01 13:21:34;;;;;;;4.10;2.50;;;;;;100179.66;;;;107490;1278;27591;-30
2022/06/01 13:24:06;;;;;;;4.20;2.50;;;;;;100177.55;;;;107509;1277;28686;-31
2022/06/01 13:26:41;;;;;;;5.50;2.80;;;;;;100166.39;;;;107265;1278;313828;-32
2022/06/01 13:29:14;;;;;;;4.30;2.40;;;;;;100165.89;;;;107510;1277;26519;-31
2022/06/01 13:31:43;;;;;;;3.80;2.40;;;;;;100167.39;;;;107474;1277;28626;-31
2022/06/01 13:34:23;;;;;;;4.00;2.40;;;;;;100165.27;;;;107548;1277;28312;-31
2022/06/01 13:36:52;;;;;;;3.60;1.80;;;;;;100159.25;;;;107492;1277;28851;-31
2022/06/01 13:39:30;;;;;;;3.40;1.80;;;;;;100159.90;;;;107514;1278;28664;-31
2022/06/01 13:42:00;;;;;;;4.10;2.00;;;;;;100159.35;;;;107511;1277;27208;-31
2022/06/01 13:44:54;;;;;;;3.50;2.00;;;;;;100162.08;;;;107514;1277;28676;-31
2022/06/01 13:47:31;;;;;;;3.50;2.10;;;;;;100166.05;;;;107487;1277;28797;-31
2022/06/01 13:50:13;;;;;;;3.70;2.10;;;;;;100171.36;;;;107511;1279;29427;-31
2022/06/01 13:52:47;;;;;;;3.10;1.90;;;;;;100178.61;;;;107491;1279;26477;-30